Time;durP1;ratioP1;P1;durP2;ratioP2;P2;SDS_P1;SDS_P2;PMS_P1;PMS_P2;Temp;Humidity;BMP_temperature;BMP_pressure;BME280_temperature;BME280_humidity;BME280_pressure;Samples;Min_cycle;Max_cycle;Signal;HPM_P1;HPM_P2
2021/01/10 00:02:20;;;;;;;44.10;19.30;;;;;;;-0.29;88.17;102041.09;5013644;28;20034;-72
2021/01/10 00:04:45;;;;;;;37.23;16.10;;;;;;;-0.25;88.13;102044.47;5012439;28;20575;-72
2021/01/10 00:07:11;;;;;;;42.03;17.07;;;;;;;-0.23;88.30;102034.78;5012384;28;20391;-72
2021/01/10 00:09:36;;;;;;;43.40;17.53;;;;;;;-0.26;88.26;102038.38;5013378;28;20487;-67
2021/01/10 00:12:01;;;;;;;43.67;18.77;;;;;;;-0.26;88.29;102038.38;4996146;28;20517;-67
2021/01/10 00:14:27;;;;;;;38.90;17.47;;;;;;;-0.30;88.53;102038.56;5012447;28;20367;-66
2021/01/10 00:16:52;;;;;;;41.00;18.37;;;;;;;-0.33;88.48;102044.78;5013132;28;20284;-67
2021/01/10 00:19:17;;;;;;;42.57;18.57;;;;;;;-0.30;88.68;102042.03;4996059;28;20061;-67
2021/01/10 00:21:43;;;;;;;42.63;18.17;;;;;;;-0.30;88.33;102043.81;5013298;28;20038;-67
2021/01/10 00:24:08;;;;;;;36.03;14.63;;;;;;;-0.35;88.33;102043.97;5013030;28;20045;-67
2021/01/10 00:26:35;;;;;;;32.17;14.15;;;;;;;-0.37;88.19;102051.06;5012839;28;20034;-67
2021/01/10 00:29:01;;;;;;;39.28;15.63;;;;;;;-0.38;88.00;102051.09;5012086;28;20046;-67
2021/01/10 00:31:28;;;;;;;37.47;16.33;;;;;;;-0.40;87.75;102051.16;5012072;28;20041;-67
2021/01/10 00:33:53;;;;;;;36.75;15.75;;;;;;;-0.41;88.04;102059.09;5012982;28;20042;-67
2021/01/10 00:36:19;;;;;;;37.77;17.10;;;;;;;-0.38;87.80;102058.97;5011818;28;20033;-67
2021/01/10 00:38:44;;;;;;;40.47;16.67;;;;;;;-0.41;88.03;102064.34;5012603;28;20033;-67
2021/01/10 00:41:09;;;;;;;41.20;16.93;;;;;;;-0.43;87.81;102067.03;5012993;28;20096;-67
2021/01/10 00:43:35;;;;;;;32.33;13.60;;;;;;;-0.51;87.77;102067.34;5011940;28;20037;-67
2021/01/10 00:46:00;;;;;;;32.57;15.30;;;;;;;-0.62;87.55;102060.78;5012704;28;20029;-67
2021/01/10 00:48:25;;;;;;;39.33;16.60;;;;;;;-0.62;87.60;102066.88;5011788;28;20037;-67
2021/01/10 00:50:51;;;;;;;40.13;16.33;;;;;;;-0.60;87.73;102064.22;5011611;28;20459;-67
2021/01/10 00:53:16;;;;;;;39.70;16.13;;;;;;;-0.64;87.78;102064.31;5012650;28;20426;-67
2021/01/10 00:55:41;;;;;;;32.93;13.67;;;;;;;-0.69;88.03;102066.25;5012480;28;20471;-67
2021/01/10 00:58:07;;;;;;;39.23;15.00;;;;;;;-0.83;87.87;102070.31;5010569;28;20456;-67
2021/01/10 01:00:32;;;;;;;32.95;14.57;;;;;;;-0.78;88.00;102073.63;5011581;28;20026;-67
2021/01/10 01:02:58;;;;;;;38.95;17.60;;;;;;;-0.71;88.18;102069.84;4995509;28;20353;-67
2021/01/10 01:05:24;;;;;;;36.97;16.02;;;;;;;-0.76;88.12;102074.41;5011422;28;20124;-67
2021/01/10 01:07:51;;;;;;;36.60;15.05;;;;;;;-0.81;88.12;102077.22;5010932;28;20048;-67
2021/01/10 01:10:22;;;;;;;34.05;14.88;;;;;;;-0.76;88.28;102077.03;5011390;28;20128;-67
2021/01/10 01:12:47;;;;;;;36.07;15.97;;;;;;;-0.74;88.53;102075.22;5011277;28;20124;-67
2021/01/10 01:15:13;;;;;;;35.17;14.53;;;;;;;-0.70;88.65;102076.81;5012220;28;20172;-67
2021/01/10 01:17:39;;;;;;;35.83;15.27;;;;;;;-0.73;88.28;102075.13;4994743;28;20132;-67
2021/01/10 01:20:05;;;;;;;33.47;13.93;;;;;;;-0.70;88.38;102066.34;5012208;28;20030;-67
2021/01/10 01:22:30;;;;;;;33.65;14.27;;;;;;;-0.76;88.35;102069.16;5011126;28;20037;-67
2021/01/10 01:24:55;;;;;;;35.33;14.30;;;;;;;-0.79;88.65;102074.53;5011233;28;20044;-67
2021/01/10 01:27:21;;;;;;;35.90;16.80;;;;;;;-0.75;88.44;102066.50;5010883;28;20237;-68
2021/01/10 01:29:46;;;;;;;30.97;14.70;;;;;;;-0.74;88.59;102067.34;5010964;28;20467;-68
2021/01/10 01:32:11;;;;;;;34.97;16.30;;;;;;;-0.79;88.43;102054.41;5010976;28;20045;-68
2021/01/10 01:34:37;;;;;;;36.47;16.53;;;;;;;-0.80;88.56;102057.06;5011030;28;20052;-68
2021/01/10 01:37:05;;;;;;;38.03;16.77;;;;;;;-0.92;88.51;102056.63;5010587;28;20045;-68
2021/01/10 01:39:31;;;;;;;40.97;17.13;;;;;;;-0.95;88.53;102048.88;5010961;28;20048;-68
2021/01/10 01:41:56;;;;;;;37.00;17.38;;;;;;;-0.99;88.78;102057.75;5011769;28;20349;-68
2021/01/10 01:44:21;;;;;;;41.10;16.63;;;;;;;-1.18;89.16;102054.09;5011881;28;20068;-68
2021/01/10 01:46:46;;;;;;;42.73;18.60;;;;;;;-1.12;89.21;102052.13;5011504;28;20037;-68
2021/01/10 01:49:12;;;;;;;37.47;16.23;;;;;;;-1.12;88.97;102062.59;5010980;28;20378;-68
2021/01/10 01:51:39;;;;;;;35.92;16.48;;;;;;;-1.10;88.97;102066.03;5011507;28;20607;-68
2021/01/10 01:54:06;;;;;;;37.17;14.80;;;;;;;-1.07;88.93;102068.53;5011713;28;20041;-68
2021/01/10 01:56:32;;;;;;;34.63;15.38;;;;;;;-1.14;88.84;102068.81;5010461;28;20069;-68
2021/01/10 01:59:07;;;;;;;38.35;15.60;;;;;;;-1.14;88.80;102063.56;5010708;28;20048;-68
2021/01/10 02:01:35;;;;;;;33.72;15.80;;;;;;;-1.12;89.07;102059.13;5010679;28;20034;-68
2021/01/10 02:04:28;;;;;;;38.30;16.70;;;;;;;-1.04;89.20;102048.34;5011434;28;20048;-68
2021/01/10 02:07:11;;;;;;;39.00;16.33;;;;;;;-1.10;89.43;102049.41;5010247;28;20464;-68
2021/01/10 02:09:41;;;;;;;45.92;17.70;;;;;;;-1.19;89.21;102050.63;5010328;28;20048;-68
2021/01/10 02:12:09;;;;;;;39.50;16.63;;;;;;;-1.19;89.25;102049.78;5010558;28;20042;-68
2021/01/10 02:14:54;;;;;;;42.00;18.48;;;;;;;-1.18;89.28;102043.59;5010313;28;20132;-68
2021/01/10 02:17:20;;;;;;;38.03;17.33;;;;;;;-1.15;89.15;102049.63;5011178;28;20068;-68
2021/01/10 02:20:09;;;;;;;41.47;16.85;;;;;;;-1.20;88.84;102051.50;4994020;28;20037;-68
2021/01/10 02:22:49;;;;;;;48.78;18.70;;;;;;;-1.22;88.96;102050.72;5011429;28;20048;-68
2021/01/10 02:25:14;;;;;;;47.97;21.40;;;;;;;-1.50;89.28;102042.97;5011412;28;20200;-68
2021/01/10 02:27:41;;;;;;;50.65;20.60;;;;;;;-1.47;89.65;102049.91;5010128;28;20511;-68
2021/01/10 02:30:08;;;;;;;48.60;20.35;;;;;;;-1.66;89.75;102045.28;5010467;28;20034;-68
2021/01/10 02:32:35;;;;;;;50.78;20.23;;;;;;;-1.81;90.18;102046.63;5011219;28;20042;-67
2021/01/10 02:35:02;;;;;;;57.63;22.52;;;;;;;-1.95;90.37;102039.22;5010191;28;20033;-68
2021/01/10 02:37:59;;;;;;;52.97;20.38;;;;;;;-1.99;90.30;102040.25;5010762;28;20474;-68
2021/01/10 02:40:32;;;;;;;53.55;19.83;;;;;;;-2.04;90.44;102033.44;5010204;28;20104;-68
2021/01/10 02:43:20;;;;;;;46.10;19.42;;;;;;;-1.98;90.49;102030.63;5011084;28;20053;-68
2021/01/10 02:45:49;;;;;;;58.17;24.05;;;;;;;-2.03;90.66;102025.56;4993525;28;20030;-68
2021/01/10 02:48:15;;;;;;;50.08;20.92;;;;;;;-2.01;90.63;102022.91;5011027;28;20130;-67
2021/01/10 02:50:41;;;;;;;54.20;23.98;;;;;;;-1.96;90.58;102026.22;5011220;28;20042;-67
2021/01/10 02:53:07;;;;;;;45.60;20.65;;;;;;;-1.87;90.54;102028.53;5010027;28;20046;-67
2021/01/10 02:55:32;;;;;;;60.58;25.17;;;;;;;-1.94;90.65;102030.50;5009970;28;20511;-67
2021/01/10 02:58:07;;;;;;;48.28;21.88;;;;;;;-1.98;91.03;102028.03;5010024;28;20053;-67
2021/01/10 03:00:33;;;;;;;60.85;24.08;;;;;;;-2.01;91.30;102028.13;5010160;28;20479;-67
2021/01/10 03:03:01;;;;;;;57.35;26.58;;;;;;;-2.14;90.94;102023.28;5010161;28;20030;-73
2021/01/10 03:05:28;;;;;;;62.95;24.17;;;;;;;-2.23;91.30;102017.47;5009848;28;20042;-72
2021/01/10 03:07:55;;;;;;;64.90;24.38;;;;;;;-2.13;91.69;102016.31;5010738;28;20042;-72
2021/01/10 03:10:21;;;;;;;67.20;23.63;;;;;;;-2.09;91.60;102019.66;5010933;28;20115;-73
2021/01/10 03:12:47;;;;;;;64.40;27.00;;;;;;;-2.09;91.38;102012.66;5009783;28;20080;-73
2021/01/10 03:15:14;;;;;;;65.45;25.58;;;;;;;-2.12;91.71;102012.78;5009861;28;20117;-66
2021/01/10 03:17:44;;;;;;;69.70;27.90;;;;;;;-2.16;91.70;102014.63;5009653;28;20038;-67
2021/01/10 03:20:21;;;;;;;74.53;27.83;;;;;;;-2.20;91.86;102007.78;5009810;28;20036;-66
2021/01/10 03:22:47;;;;;;;;;;;;;;;-2.23;91.70;102020.94;5014819;28;20026;-66
2021/01/10 03:25:22;;;;;;;66.20;24.58;;;;;;;-2.20;91.71;102028.72;5014206;28;19917;-66
2021/01/10 03:27:47;;;;;;;70.60;27.10;;;;;;;-2.17;91.81;102026.00;5014006;28;20476;-66
2021/01/10 03:30:16;;;;;;;74.97;27.15;;;;;;;-2.14;91.90;102022.44;5013485;28;20120;-66
2021/01/10 03:32:42;;;;;;;73.70;26.02;;;;;;;-2.21;92.07;102031.38;5014133;28;20073;-66
2021/01/10 03:35:09;;;;;;;71.88;25.88;;;;;;;-2.22;92.32;102032.28;5014066;28;20038;-66
2021/01/10 03:37:35;;;;;;;80.00;28.27;;;;;;;-2.22;92.57;102029.69;5012858;28;20080;-66
2021/01/10 03:40:02;;;;;;;77.03;27.98;;;;;;;-2.13;92.41;102029.38;5012897;28;20450;-66
2021/01/10 03:42:27;;;;;;;;;;;;;;;-2.16;92.50;102030.31;5014461;28;20037;-66
2021/01/10 03:44:52;;;;;;;71.13;27.25;;;;;;;-2.21;92.41;102034.84;5013909;28;20286;-66
2021/01/10 03:47:18;;;;;;;77.67;28.27;;;;;;;-2.09;92.27;102032.75;5013683;28;20053;-66
2021/01/10 03:49:43;;;;;;;76.18;25.80;;;;;;;-2.17;92.47;102028.63;5013869;28;20053;-66
2021/01/10 03:52:08;;;;;;;63.97;24.80;;;;;;;-2.08;92.36;102026.59;5013834;28;20041;-66
2021/01/10 03:54:34;;;;;;;60.37;23.03;;;;;;;-2.16;92.34;102025.09;5012765;28;20034;-66
2021/01/10 03:56:59;;;;;;;64.57;22.40;;;;;;;-2.13;92.00;102024.16;5013510;28;20288;-66
2021/01/10 03:59:24;;;;;;;71.07;24.73;;;;;;;-2.21;92.17;102023.53;5013772;28;20102;-66
2021/01/10 04:01:50;;;;;;;63.47;25.30;;;;;;;-2.21;92.00;102019.16;5013740;28;20041;-66
2021/01/10 04:04:15;;;;;;;58.92;22.30;;;;;;;-2.18;92.01;102019.06;5013553;28;20316;-66
2021/01/10 04:06:41;;;;;;;58.03;23.60;;;;;;;-2.11;92.01;102019.69;5013306;28;20033;-66
2021/01/10 04:09:06;;;;;;;54.53;21.83;;;;;;;-2.03;91.93;102020.31;5012364;28;20050;-66
2021/01/10 04:11:31;;;;;;;56.80;21.40;;;;;;;-2.08;91.68;102010.88;5012485;28;20297;-66
2021/01/10 04:13:57;;;;;;;54.27;20.97;;;;;;;-2.03;91.70;102015.09;5012405;28;20048;-66
2021/01/10 04:16:22;;;;;;;55.83;22.33;;;;;;;-2.05;91.26;102005.56;5012083;28;20042;-66
2021/01/10 04:18:47;;;;;;;52.97;20.63;;;;;;;-2.15;90.96;102013.72;5013369;28;20383;-66
2021/01/10 04:21:13;;;;;;;64.77;23.47;;;;;;;-2.20;91.69;102004.28;5013297;28;20715;-66
2021/01/10 04:23:38;;;;;;;80.20;25.57;;;;;;;-2.19;91.00;102004.25;4995841;28;20092;-66
2021/01/10 04:26:03;;;;;;;51.43;21.50;;;;;;;-2.15;91.36;102008.50;5012985;28;20375;-66
2021/01/10 04:28:29;;;;;;;56.47;21.95;;;;;;;-2.06;91.09;102011.69;5013057;28;20076;-66
2021/01/10 04:30:55;;;;;;;48.67;20.97;;;;;;;-2.15;90.50;102016.34;5012071;28;20030;-66
2021/01/10 04:33:21;;;;;;;52.45;21.60;;;;;;;-2.24;90.47;102018.41;5012851;28;20042;-66
2021/01/10 04:35:46;;;;;;;49.88;22.00;;;;;;;-2.27;90.75;102013.25;5011865;28;20057;-66
2021/01/10 04:38:12;;;;;;;60.60;25.03;;;;;;;-2.17;91.01;102007.69;5012834;28;20034;-66
2021/01/10 04:40:37;;;;;;;52.00;19.00;;;;;;;-2.21;90.75;102016.53;5012952;28;20300;-66
2021/01/10 04:43:02;;;;;;;51.15;19.58;;;;;;;-2.10;90.73;102012.72;4995681;28;20033;-66
2021/01/10 04:45:28;;;;;;;48.50;19.80;;;;;;;-2.15;90.25;102005.88;5012746;28;20121;-66
2021/01/10 04:47:54;;;;;;;39.08;17.58;;;;;;;-2.12;90.32;102011.00;5011634;28;20069;-66
2021/01/10 04:50:21;;;;;;;43.90;18.63;;;;;;;-2.15;90.08;102005.03;5011808;28;20470;-66
2021/01/10 04:52:52;;;;;;;43.50;18.00;;;;;;;-2.23;89.42;101992.16;5012432;28;20084;-66
2021/01/10 04:55:20;;;;;;;35.15;18.15;;;;;;;-2.26;89.26;101987.03;5011669;28;20368;-66
2021/01/10 04:57:45;;;;;;;42.08;18.17;;;;;;;-2.21;89.09;101986.91;5012449;28;20037;-66
2021/01/10 05:00:11;;;;;;;43.63;19.30;;;;;;;-2.24;88.84;101995.72;5012651;28;20104;-66
2021/01/10 05:02:46;;;;;;;40.72;18.27;;;;;;;-2.28;88.90;101986.25;5012609;28;20061;-66
2021/01/10 05:05:12;;;;;;;42.30;18.65;;;;;;;-2.30;88.81;101988.03;5011405;28;20045;-66
2021/01/10 05:07:39;;;;;;;41.28;19.38;;;;;;;-2.23;88.87;101991.31;5011237;28;20038;-66
2021/01/10 05:10:07;;;;;;;41.88;18.67;;;;;;;-2.16;89.13;101996.28;5012404;28;20038;-66
2021/01/10 05:12:32;;;;;;;43.83;18.70;;;;;;;-2.19;88.91;101988.56;5011516;28;20080;-66
2021/01/10 05:14:58;;;;;;;44.15;19.35;;;;;;;-2.09;89.15;101975.19;5011405;28;20065;-66
2021/01/10 05:17:23;;;;;;;39.17;17.90;;;;;;;-2.15;88.95;101974.47;5011026;28;20029;-66
2021/01/10 05:19:49;;;;;;;53.47;22.80;;;;;;;-2.15;88.92;101979.72;5011249;28;20037;-66
2021/01/10 05:22:16;;;;;;;46.92;19.90;;;;;;;-2.14;88.75;101970.94;5012108;28;20355;-66
2021/01/10 05:24:47;;;;;;;41.95;19.33;;;;;;;-2.14;88.27;101965.69;5011175;28;20046;-66
2021/01/10 05:27:12;;;;;;;37.53;17.85;;;;;;;-2.07;87.99;101955.03;4994451;28;20060;-66
2021/01/10 05:29:37;;;;;;;39.00;18.20;;;;;;;-2.02;87.65;101953.13;5011132;28;20041;-66
2021/01/10 05:32:03;;;;;;;42.20;18.40;;;;;;;-1.96;87.68;101939.84;5011063;28;20738;-66
2021/01/10 05:34:29;;;;;;;;;;;;;;;-1.96;87.10;101945.06;5011302;28;20066;-66
2021/01/10 05:36:56;;;;;;;40.70;19.42;;;;;;;-2.01;86.89;101936.53;5010525;28;19924;-66
2021/01/10 05:39:24;;;;;;;40.75;17.88;;;;;;;-1.96;86.90;101942.47;5010739;28;20042;-66
2021/01/10 05:41:52;;;;;;;43.00;18.20;;;;;;;-2.00;86.85;101946.94;5010677;28;20466;-66
2021/01/10 05:44:18;;;;;;;37.25;18.52;;;;;;;-1.97;86.60;101931.13;5011144;28;20132;-66
2021/01/10 05:46:44;;;;;;;;;;;;;;;-1.95;86.22;101941.53;5011716;28;20036;-66
2021/01/10 05:49:21;;;;;;;40.63;18.90;;;;;;;-1.93;86.36;101947.56;5011429;28;19918;-66
2021/01/10 05:51:48;;;;;;;41.88;18.42;;;;;;;-1.85;86.27;101956.03;5011370;28;20057;-66
2021/01/10 05:54:33;;;;;;;37.95;17.67;;;;;;;-1.84;86.00;101949.88;5010549;28;20048;-66
2021/01/10 05:57:00;;;;;;;40.30;19.15;;;;;;;-1.88;85.96;101948.25;5010190;28;20088;-66
2021/01/10 05:59:28;;;;;;;35.17;17.27;;;;;;;-1.86;85.79;101951.69;5010577;28;20038;-66
2021/01/10 06:01:54;;;;;;;39.88;17.27;;;;;;;-1.83;85.60;101959.44;5011547;28;20040;-66
2021/01/10 06:04:23;;;;;;;40.92;19.92;;;;;;;-1.83;85.86;101954.19;5011470;28;20128;-66
2021/01/10 06:06:48;;;;;;;36.15;17.30;;;;;;;-1.85;85.80;101963.88;5011334;28;20030;-66
2021/01/10 06:09:13;;;;;;;43.60;16.93;;;;;;;-1.86;85.56;101953.47;5011614;28;20049;-66
2021/01/10 06:11:39;;;;;;;33.30;18.00;;;;;;;-1.93;85.65;101948.41;5011472;28;20052;-66
2021/01/10 06:14:05;;;;;;;37.80;17.73;;;;;;;-1.90;85.83;101944.84;5010392;28;20108;-66
2021/01/10 06:16:33;;;;;;;33.53;17.13;;;;;;;-1.80;86.43;101953.25;4993777;28;20045;-66
2021/01/10 06:19:00;;;;;;;35.85;17.17;;;;;;;-1.81;86.28;101960.22;5011471;28;20030;-66
2021/01/10 06:21:27;;;;;;;35.38;17.73;;;;;;;-1.83;86.06;101954.19;5011486;28;20041;-72
2021/01/10 06:23:57;;;;;;;34.78;16.85;;;;;;;-1.81;86.30;101955.00;4994118;28;20537;-72
2021/01/10 06:26:24;;;;;;;40.65;17.05;;;;;;;-1.82;86.28;101957.69;5010996;28;20087;-71
2021/01/10 06:28:58;;;;;;;35.65;16.23;;;;;;;-1.78;86.65;101954.91;5011137;28;20042;-71
2021/01/10 06:31:26;;;;;;;34.38;16.60;;;;;;;-1.77;86.56;101950.53;5011140;28;20088;-71
2021/01/10 06:33:58;;;;;;;39.35;17.63;;;;;;;-1.80;86.74;101951.50;5011302;28;20563;-71
2021/01/10 06:36:25;;;;;;;37.70;17.13;;;;;;;-1.77;86.89;101948.75;5010954;28;20041;-72
2021/01/10 06:38:57;;;;;;;39.28;17.05;;;;;;;-1.81;86.86;101947.16;5010416;28;20034;-72
2021/01/10 06:41:25;;;;;;;37.35;16.27;;;;;;;-1.85;86.53;101949.91;4993936;28;20046;-71
2021/01/10 06:44:05;;;;;;;33.97;17.70;;;;;;;-1.80;86.90;101948.03;5010254;28;20026;-71
2021/01/10 06:46:31;;;;;;;41.42;18.73;;;;;;;-1.77;87.07;101953.16;5010026;28;20042;-71
2021/01/10 06:48:57;;;;;;;32.05;16.17;;;;;;;-1.74;87.39;101950.41;5010255;28;20383;-71
2021/01/10 06:51:24;;;;;;;39.40;16.67;;;;;;;-1.79;86.97;101940.09;5010019;28;20052;-72
2021/01/10 06:53:49;;;;;;;38.70;16.58;;;;;;;-1.85;87.06;101940.31;5010132;28;20045;-72
2021/01/10 06:56:16;;;;;;;34.72;15.60;;;;;;;-1.85;86.90;101936.84;5012531;28;20100;-71
2021/01/10 06:59:07;;;;;;;38.13;17.88;;;;;;;-1.87;86.94;101936.03;5013976;28;20479;-71
2021/01/10 07:01:53;;;;;;;33.42;15.18;;;;;;;-1.85;86.96;101945.56;5014902;28;20065;-71
2021/01/10 07:04:36;;;;;;;36.63;17.10;;;;;;;-1.90;86.83;101944.84;5009878;28;20064;-66
2021/01/10 07:07:03;;;;;;;36.42;17.30;;;;;;;-1.85;87.30;101942.94;5014333;28;20057;-66
2021/01/10 07:09:48;;;;;;;;;;;;;;;-1.86;87.22;101935.97;5014190;28;20106;-66
2021/01/10 07:12:20;;;;;;;24.48;12.43;;;;;;;-1.96;87.02;101945.06;5014403;28;19918;-66
2021/01/10 07:14:45;;;;;;;24.48;11.82;;;;;;;-1.89;86.83;101933.47;5013679;28;20042;-66
2021/01/10 07:17:12;;;;;;;23.93;11.97;;;;;;;-1.89;87.12;101930.03;5014425;28;20046;-66
2021/01/10 07:19:46;;;;;;;23.15;10.65;;;;;;;-1.95;86.86;101936.31;5014369;28;20451;-66
2021/01/10 07:22:27;;;;;;;26.60;11.68;;;;;;;-1.89;86.76;101933.47;5013325;28;20117;-66
2021/01/10 07:24:53;;;;;;;26.02;12.18;;;;;;;-1.87;86.92;101931.66;5013234;28;20044;-66
2021/01/10 07:27:32;;;;;;;24.90;11.63;;;;;;;-1.86;87.01;101938.59;4996625;28;20034;-66
2021/01/10 07:30:15;;;;;;;22.20;10.65;;;;;;;-1.82;86.79;101937.59;4996187;28;20040;-66
2021/01/10 07:32:41;;;;;;;28.00;12.18;;;;;;;-1.82;87.04;101926.28;4996708;28;20141;-66
2021/01/10 07:35:06;;;;;;;23.37;10.33;;;;;;;-1.83;86.95;101938.47;5013101;28;20128;-66
2021/01/10 07:37:33;;;;;;;22.42;10.18;;;;;;;-1.74;86.85;101938.16;5012484;28;20041;-66
2021/01/10 07:40:05;;;;;;;26.20;11.32;;;;;;;-1.72;86.86;101941.59;5013947;28;20624;-66
2021/01/10 07:42:33;;;;;;;21.42;9.63;;;;;;;-1.71;86.85;101927.59;5013705;28;20057;-66
2021/01/10 07:45:02;;;;;;;22.88;11.02;;;;;;;-1.67;86.54;101936.19;5013825;28;20042;-66
2021/01/10 07:47:33;;;;;;;22.27;10.07;;;;;;;-1.63;86.65;101926.47;5013421;28;20046;-66
2021/01/10 07:50:07;;;;;;;22.05;10.63;;;;;;;-1.65;86.73;101930.91;5013627;28;20076;-66
2021/01/10 07:52:41;;;;;;;23.90;10.75;;;;;;;-1.61;86.76;101930.75;5013540;28;20371;-66
2021/01/10 07:55:18;;;;;;;21.65;9.88;;;;;;;-1.58;86.69;101927.16;5013603;28;20121;-66
2021/01/10 07:58:00;;;;;;;21.60;11.15;;;;;;;-1.62;86.66;101923.78;5013155;28;20096;-66
2021/01/10 08:00:32;;;;;;;25.60;11.30;;;;;;;-1.60;86.74;101915.88;5013388;28;20096;-66
2021/01/10 08:03:00;;;;;;;31.60;13.18;;;;;;;-1.57;86.91;101918.38;4996056;28;20029;-66
2021/01/10 08:05:29;;;;;;;30.70;13.60;;;;;;;-1.57;86.86;101910.50;5013216;28;20066;-66
2021/01/10 08:08:01;;;;;;;30.65;14.43;;;;;;;-1.55;86.96;101920.03;5011568;28;20034;-66
2021/01/10 08:10:41;;;;;;;28.00;13.80;;;;;;;-1.55;87.11;101914.78;4996068;28;20026;-66
2021/01/10 08:13:29;;;;;;;32.35;14.00;;;;;;;-1.53;86.92;101915.59;5013182;28;20741;-66
2021/01/10 08:15:56;;;;;;;35.33;15.93;;;;;;;-1.51;87.09;101907.69;5013085;28;20248;-66
2021/01/10 08:18:23;;;;;;;35.55;13.77;;;;;;;-1.49;87.10;101918.97;5012974;28;20099;-66
2021/01/10 08:20:50;;;;;;;35.40;15.07;;;;;;;-1.49;87.31;101917.19;5013258;28;20038;-66
2021/01/10 08:23:17;;;;;;;37.90;15.07;;;;;;;-1.46;87.08;101908.34;5011988;28;20041;-66
2021/01/10 08:25:42;;;;;;;41.13;16.98;;;;;;;-1.54;87.40;101910.44;5011908;28;20069;-66
2021/01/10 08:28:07;;;;;;;40.13;15.93;;;;;;;-1.47;87.57;101917.16;5012967;28;20045;-66
2021/01/10 08:30:33;;;;;;;40.87;17.07;;;;;;;-1.37;87.71;101917.66;5012097;28;20344;-66
2021/01/10 08:32:58;;;;;;;45.17;19.15;;;;;;;-1.43;87.71;101923.97;5012945;28;20041;-66
2021/01/10 08:35:24;;;;;;;41.77;17.10;;;;;;;-1.39;87.38;101933.41;5011843;28;20045;-66
2021/01/10 08:37:49;;;;;;;44.77;18.33;;;;;;;-1.44;87.39;101927.50;5012488;28;20034;-66
2021/01/10 08:40:14;;;;;;;46.10;17.90;;;;;;;-1.37;87.45;101930.75;5012754;28;20753;-66
2021/01/10 08:42:41;;;;;;;43.63;16.90;;;;;;;-1.35;87.34;101928.94;5012916;28;20129;-66
2021/01/10 08:45:20;;;;;;;45.13;18.77;;;;;;;-1.32;87.48;101926.19;5011707;28;20056;-66
2021/01/10 08:47:47;;;;;;;46.15;19.50;;;;;;;-1.39;87.42;101933.41;5012503;28;20041;-66
2021/01/10 08:50:14;;;;;;;44.50;18.35;;;;;;;-1.35;87.77;101939.41;5012551;28;20092;-66
2021/01/10 08:52:56;;;;;;;45.55;18.92;;;;;;;-1.32;87.93;101936.69;5012089;28;20096;-66
2021/01/10 08:55:38;;;;;;;45.35;19.90;;;;;;;-1.20;87.91;101941.44;5012497;28;20037;-66
2021/01/10 08:58:07;;;;;;;36.70;17.08;;;;;;;-1.27;87.56;101943.44;5011439;28;20088;-66
2021/01/10 09:00:42;;;;;;;44.22;19.33;;;;;;;-1.29;88.03;101936.56;5012397;28;20033;-66
2021/01/10 09:03:15;;;;;;;43.20;18.77;;;;;;;-1.17;87.81;101943.09;5012417;28;20084;-66
2021/01/10 09:05:41;;;;;;;43.72;19.52;;;;;;;-1.10;87.69;101936.72;5011924;28;20132;-66
2021/01/10 09:08:14;;;;;;;48.85;19.70;;;;;;;-1.02;87.60;101945.16;5011397;28;20491;-66
2021/01/10 09:10:49;;;;;;;45.55;18.77;;;;;;;-1.00;87.31;101943.34;5012324;28;20128;-66
2021/01/10 09:13:17;;;;;;;45.70;20.00;;;;;;;-1.20;87.28;101933.59;5012240;28;20579;-66
2021/01/10 09:15:45;;;;;;;46.15;18.67;;;;;;;-1.14;87.67;101928.13;4994687;28;20038;-66
2021/01/10 09:18:19;;;;;;;44.10;18.92;;;;;;;-1.11;87.85;101930.63;5011565;28;20058;-66
2021/01/10 09:20:56;;;;;;;43.97;18.80;;;;;;;-1.12;87.87;101933.31;5012134;28;20038;-66
2021/01/10 09:23:24;;;;;;;48.65;19.63;;;;;;;-1.10;88.03;101928.84;5012216;28;20036;-66
2021/01/10 09:25:49;;;;;;;48.53;22.70;;;;;;;-1.00;88.10;101930.22;5011615;28;20037;-66
2021/01/10 09:28:19;;;;;;;51.00;20.03;;;;;;;-0.97;87.82;101919.59;5011955;28;20037;-66
2021/01/10 09:30:53;;;;;;;47.88;19.55;;;;;;;-0.89;87.78;101917.56;5011063;28;20108;-66
2021/01/10 09:33:26;;;;;;;42.53;17.80;;;;;;;-0.91;87.34;101919.38;5011078;28;20397;-66
2021/01/10 09:35:53;;;;;;;44.88;19.38;;;;;;;-0.94;87.86;101929.97;5011583;28;20034;-66
2021/01/10 09:38:22;;;;;;;45.08;17.15;;;;;;;-0.88;87.91;101923.66;5011497;28;20092;-66
2021/01/10 09:41:08;;;;;;;50.20;20.42;;;;;;;-0.76;87.64;101932.81;5011605;28;20029;-66
2021/01/10 09:43:38;;;;;;;40.25;18.13;;;;;;;-0.66;87.58;101934.13;5011839;28;20044;-66
2021/01/10 09:46:22;;;;;;;47.58;19.63;;;;;;;-0.65;87.47;101931.47;5011479;28;20042;-66
2021/01/10 09:49:15;;;;;;;47.60;19.98;;;;;;;-0.80;87.97;101926.81;5010584;28;20034;-66
2021/01/10 09:51:43;;;;;;;44.42;19.80;;;;;;;-0.73;87.81;101928.28;5010858;28;20205;-66
2021/01/10 09:54:12;;;;;;;47.38;19.60;;;;;;;-0.67;87.52;101927.19;4994476;28;20034;-66
2021/01/10 09:56:37;;;;;;;43.20;17.63;;;;;;;-0.68;87.69;101920.22;5010994;28;20084;-66
2021/01/10 09:59:03;;;;;;;42.43;18.00;;;;;;;-0.81;88.11;101913.78;5011456;28;20144;-66
2021/01/10 10:01:38;;;;;;;43.35;20.80;;;;;;;-0.72;87.82;101911.63;5010531;28;20033;-66
2021/01/10 10:04:04;;;;;;;46.83;19.08;;;;;;;-0.67;87.65;101906.22;5011487;28;20110;-66
2021/01/10 10:06:47;;;;;;;49.78;19.25;;;;;;;-0.57;87.55;101909.31;5011003;28;20117;-66
2021/01/10 10:09:12;;;;;;;46.22;18.80;;;;;;;-0.49;87.10;101902.00;5011389;28;20125;-66
2021/01/10 10:11:38;;;;;;;45.80;18.80;;;;;;;-0.50;87.17;101897.66;5011090;28;20120;-66
2021/01/10 10:14:03;;;;;;;49.57;20.47;;;;;;;-0.30;86.91;101902.09;5011438;28;20038;-66
2021/01/10 10:16:30;;;;;;;43.57;19.77;;;;;;;-0.31;86.22;101898.59;5011021;28;20103;-66
2021/01/10 10:18:57;;;;;;;44.90;19.35;;;;;;;-0.26;86.70;101893.13;5011481;28;20471;-66
2021/01/10 10:21:24;;;;;;;42.85;19.00;;;;;;;-0.09;86.38;101898.53;4993973;28;20463;-66
2021/01/10 10:23:49;;;;;;;49.00;17.60;;;;;;;-0.26;86.46;101899.25;5011290;28;20037;-66
2021/01/10 10:26:15;;;;;;;41.33;18.73;;;;;;;-0.21;86.33;101896.44;5010826;28;20042;-66
2021/01/10 10:28:40;;;;;;;45.80;17.37;;;;;;;-0.07;86.10;101890.59;5010315;28;20041;-66
2021/01/10 10:31:05;;;;;;;43.23;17.27;;;;;;;-0.03;85.97;101885.13;5014831;28;20111;-66
2021/01/10 10:33:30;;;;;;;41.90;17.97;;;;;;;-0.13;86.18;101883.00;5015264;28;20046;-66
2021/01/10 10:35:57;;;;;;;46.97;22.10;;;;;;;0.02;85.84;101874.44;5014127;28;20415;-67
2021/01/10 10:38:22;;;;;;;42.10;18.08;;;;;;;-0.06;86.31;101869.53;5015141;28;20820;-66
2021/01/10 10:40:47;;;;;;;38.83;17.80;;;;;;;-0.02;86.22;101863.22;5013900;28;20053;-66
2021/01/10 10:43:13;;;;;;;43.30;17.57;;;;;;;0.01;86.16;101853.50;5014225;28;20100;-66
2021/01/10 10:45:38;;;;;;;44.33;18.40;;;;;;;0.06;85.97;101859.41;5015072;28;20037;-66
2021/01/10 10:48:04;;;;;;;45.97;19.50;;;;;;;0.04;86.20;101861.25;5014096;28;20038;-66
2021/01/10 10:50:29;;;;;;;44.60;18.17;;;;;;;0.16;86.04;101848.44;4997800;28;20045;-66
2021/01/10 10:52:55;;;;;;;45.40;18.93;;;;;;;0.33;85.86;101860.81;5014993;28;20137;-66
2021/01/10 10:55:22;;;;;;;44.37;20.37;;;;;;;0.14;86.11;101842.41;5014783;28;20040;-66
2021/01/10 10:57:47;;;;;;;41.05;18.88;;;;;;;0.37;85.44;101843.13;4997288;28;20037;-71
2021/01/10 11:00:13;;;;;;;44.60;19.53;;;;;;;0.50;85.00;101840.81;5014970;28;20048;-71
2021/01/10 11:02:38;;;;;;;37.50;17.48;;;;;;;0.60;85.30;101827.16;5013837;28;20455;-71
2021/01/10 11:05:05;;;;;;;37.97;18.73;;;;;;;0.97;84.25;101837.72;5014646;28;20045;-72
2021/01/10 11:07:33;;;;;;;36.97;15.90;;;;;;;1.04;83.83;101826.81;5013477;28;20050;-71
2021/01/10 11:09:59;;;;;;;40.05;18.65;;;;;;;0.93;84.05;101826.47;5013554;28;20440;-72
2021/01/10 11:12:24;;;;;;;36.92;16.92;;;;;;;0.94;83.39;101809.78;5013614;28;20038;-72
2021/01/10 11:14:49;;;;;;;35.23;14.80;;;;;;;1.14;83.32;101815.84;5014646;28;20567;-72
2021/01/10 11:17:15;;;;;;;36.53;16.77;;;;;;;1.09;82.85;101802.91;5013526;28;20718;-72
2021/01/10 11:19:41;;;;;;;35.30;15.83;;;;;;;1.18;82.93;101807.72;5013624;28;20511;-66